Time;durP1;ratioP1;P1;durP2;ratioP2;P2;SDS_P1;SDS_P2;PMS_P1;PMS_P2;Temp;Humidity;BMP_temperature;BMP_pressure;BME280_temperature;BME280_humidity;BME280_pressure;Samples;Min_cycle;Max_cycle;Signal;HPM_P1;HPM_P2
2020/12/30 00:00:55;;;;;;;41.77;19.70;;;;;;;2.64;80.05;95385.16;1770356;81;21142;-89
2020/12/30 00:03:22;;;;;;;23.73;10.60;;;;;;;2.65;80.00;95384.63;1770332;80;21130;-88
2020/12/30 00:05:49;;;;;;;27.27;10.43;;;;;;;2.63;79.77;95383.59;1770338;80;21138;-88
2020/12/30 00:08:16;;;;;;;23.00;9.70;;;;;;;2.37;80.50;95386.63;1770277;80;21490;-88
2020/12/30 00:10:43;;;;;;;8.88;3.20;;;;;;;2.07;81.50;95392.52;1770665;80;21297;-88
2020/12/30 00:13:10;;;;;;;5.65;2.95;;;;;;;1.96;83.23;95392.20;1770427;80;21293;-88
2020/12/30 00:15:38;;;;;;;7.55;3.20;;;;;;;2.03;83.98;95390.68;1770447;81;21134;-88
2020/12/30 00:18:05;;;;;;;14.65;6.25;;;;;;;2.16;84.16;95399.89;1770262;80;21521;-88
2020/12/30 00:20:32;;;;;;;14.20;5.75;;;;;;;2.16;83.82;95410.35;1770895;79;21175;-88
2020/12/30 00:22:59;;;;;;;9.13;4.12;;;;;;;2.06;83.71;95411.08;1770256;81;21163;-88
2020/12/30 00:25:27;;;;;;;7.85;4.40;;;;;;;1.93;83.95;95408.39;1770399;80;21138;-88
2020/12/30 00:27:55;;;;;;;7.60;4.00;;;;;;;1.88;84.74;95407.06;1770310;80;21147;-88
2020/12/30 00:30:21;;;;;;;7.80;3.02;;;;;;;1.94;84.91;95413.09;1770354;80;21132;-89
2020/12/30 00:32:49;;;;;;;15.05;5.72;;;;;;;1.96;84.18;95417.02;1770581;80;21286;-88
2020/12/30 00:35:17;;;;;;;9.25;3.55;;;;;;;1.84;83.13;95420.89;1770334;80;21134;-88
2020/12/30 00:37:45;;;;;;;5.40;2.22;;;;;;;1.76;83.39;95419.01;1770147;80;21269;-89
2020/12/30 00:40:12;;;;;;;3.90;2.37;;;;;;;1.86;85.13;95422.73;1769486;81;21154;-88
2020/12/30 00:42:40;;;;;;;12.58;4.22;;;;;;;2.02;85.40;95421.78;1769728;81;21123;-88
2020/12/30 00:45:10;;;;;;;13.08;4.37;;;;;;;2.03;84.53;95425.45;1769476;81;21139;-88
2020/12/30 00:47:38;;;;;;;10.32;3.62;;;;;;;1.96;83.90;95421.47;1769496;81;21281;-88
2020/12/30 00:50:07;;;;;;;7.90;3.52;;;;;;;1.92;83.45;95415.97;1770147;79;21171;-88
2020/12/30 00:52:35;;;;;;;7.78;3.50;;;;;;;1.86;83.29;95418.81;1769508;81;21292;-88
2020/12/30 00:55:04;;;;;;;5.87;2.50;;;;;;;1.83;83.42;95414.07;1769588;81;21464;-88
2020/12/30 00:57:31;;;;;;;3.50;2.05;;;;;;;1.82;83.40;95421.64;1769654;81;21508;-88
2020/12/30 00:59:58;;;;;;;4.20;2.25;;;;;;;1.83;83.40;95416.19;1769714;80;21525;-88
2020/12/30 01:02:26;;;;;;;5.87;2.75;;;;;;;1.81;83.43;95416.94;1769634;81;21143;-88
2020/12/30 01:04:52;;;;;;;5.33;2.72;;;;;;;1.86;83.65;95413.06;1769733;80;21542;-88
2020/12/30 01:07:20;;;;;;;5.42;2.47;;;;;;;1.90;83.81;95413.34;1769903;81;21134;-88
2020/12/30 01:09:46;;;;;;;5.62;2.20;;;;;;;1.98;84.23;95407.13;1769616;80;21134;-88
2020/12/30 01:12:13;;;;;;;4.42;2.45;;;;;;;2.02;84.50;95415.25;1769701;81;21108;-88
2020/12/30 01:14:40;;;;;;;3.27;1.80;;;;;;;2.07;84.93;95412.65;1769738;80;21154;-88
2020/12/30 01:17:07;;;;;;;2.60;1.85;;;;;;;2.19;84.98;95406.70;1769941;81;21143;-88
2020/12/30 01:19:34;;;;;;;5.50;2.37;;;;;;;2.32;84.98;95401.02;1770200;79;21108;-89
2020/12/30 01:22:01;;;;;;;4.58;2.55;;;;;;;2.35;84.45;95400.49;1769615;81;21140;-88
2020/12/30 01:24:28;;;;;;;3.62;1.75;;;;;;;2.28;83.97;95406.49;1769720;80;21490;-88
2020/12/30 01:26:56;;;;;;;3.87;1.92;;;;;;;2.23;83.85;95397.30;1769841;81;21139;-88
2020/12/30 01:29:23;;;;;;;4.55;2.00;;;;;;;2.29;83.95;95398.91;1769789;81;21165;-88
2020/12/30 01:31:50;;;;;;;2.45;1.37;;;;;;;2.32;83.93;95398.92;1769677;81;21139;-88
2020/12/30 01:34:17;;;;;;;3.55;1.80;;;;;;;2.28;83.50;95407.02;1769626;81;21130;-88
2020/12/30 01:36:44;;;;;;;3.87;1.70;;;;;;;2.19;83.30;95401.99;1769919;81;21100;-88
2020/12/30 01:39:11;;;;;;;3.87;1.70;;;;;;;2.14;82.97;95400.67;1769535;80;21168;-88
2020/12/30 01:41:38;;;;;;;4.53;1.80;;;;;;;2.15;83.14;95391.27;1769914;80;21143;-88
2020/12/30 01:44:09;;;;;;;2.72;1.90;;;;;;;2.14;83.37;95394.92;1769597;81;21103;-88
2020/12/30 01:46:40;;;;;;;2.90;1.60;;;;;;;2.16;83.50;95381.59;1769815;81;21135;-88
2020/12/30 01:49:14;;;;;;;2.52;1.77;;;;;;;2.11;83.16;95378.42;1770165;79;21539;-88
2020/12/30 01:51:43;;;;;;;3.83;1.80;;;;;;;1.93;82.79;95369.19;1769695;81;21119;-88
2020/12/30 01:54:16;;;;;;;3.72;1.80;;;;;;;1.77;82.88;95366.23;1769600;81;21123;-88
2020/12/30 01:56:47;;;;;;;3.08;1.50;;;;;;;1.81;83.33;95366.50;1769697;81;21138;-88
2020/12/30 01:59:19;;;;;;;2.70;1.70;;;;;;;1.86;83.93;95365.25;1769622;81;21490;-88
2020/12/30 02:02:06;;;;;;;2.72;1.45;;;;;;;1.84;84.55;95361.58;1769615;81;21194;-88
2020/12/30 02:04:53;;;;;;;3.20;1.40;;;;;;;1.79;84.69;95361.02;1769589;81;21096;-88
2020/12/30 02:07:24;;;;;;;7.42;3.33;;;;;;;1.77;84.61;95364.41;1769797;81;21136;-88
2020/12/30 02:09:56;;;;;;;5.72;3.25;;;;;;;1.65;83.96;95369.55;1769668;81;21159;-88
2020/12/30 02:12:24;;;;;;;5.33;2.55;;;;;;;1.50;83.80;95368.94;1769615;81;21123;-88
2020/12/30 02:14:51;;;;;;;3.85;1.72;;;;;;;1.51;83.85;95363.19;1769658;81;21172;-88
2020/12/30 02:17:18;;;;;;;3.75;1.98;;;;;;;1.52;83.78;95366.85;1769682;80;21139;-88
2020/12/30 02:19:46;;;;;;;3.60;1.70;;;;;;;1.55;83.85;95372.91;1770024;79;21134;-88
2020/12/30 02:22:25;;;;;;;2.85;1.62;;;;;;;1.54;83.99;95372.61;1769623;80;21143;-88
2020/12/30 02:24:53;;;;;;;2.22;1.42;;;;;;;1.57;84.30;95364.30;1769830;81;21119;-88
2020/12/30 02:27:20;;;;;;;3.05;1.72;;;;;;;1.59;84.23;95372.66;1769594;81;21143;-88
2020/12/30 02:29:47;;;;;;;2.47;1.55;;;;;;;1.51;84.31;95374.42;1769716;81;21148;-88
2020/12/30 02:32:14;;;;;;;4.08;2.08;;;;;;;1.49;84.47;95367.36;1769613;81;21158;-88
2020/12/30 02:34:41;;;;;;;4.00;2.17;;;;;;;1.59;84.67;95381.02;1769657;81;21143;-88
2020/12/30 02:37:08;;;;;;;7.35;2.67;;;;;;;1.60;85.10;95385.20;1769640;81;21494;-88
2020/12/30 02:39:35;;;;;;;7.92;3.30;;;;;;;1.57;85.02;95377.36;1769497;80;21462;-88
2020/12/30 02:42:02;;;;;;;6.05;2.95;;;;;;;1.61;84.67;95384.16;1769644;81;21150;-88
2020/12/30 02:44:29;;;;;;;3.47;1.80;;;;;;;1.37;83.91;95384.51;1769552;80;21147;-88
2020/12/30 02:46:56;;;;;;;3.58;1.90;;;;;;;1.21;84.95;95368.98;1769539;81;21136;-88
2020/12/30 02:49:23;;;;;;;3.72;1.85;;;;;;;1.37;85.61;95362.83;1770133;79;21583;-88
2020/12/30 02:51:50;;;;;;;4.22;2.58;;;;;;;1.50;85.46;95368.94;1769631;81;21558;-88
2020/12/30 02:54:17;;;;;;;6.58;3.08;;;;;;;1.37;84.54;95364.92;1769753;81;21135;-88
2020/12/30 02:56:44;;;;;;;4.12;2.05;;;;;;;1.08;84.05;95363.14;1769513;81;21139;-88
2020/12/30 02:59:10;;;;;;;2.30;1.40;;;;;;;1.08;84.61;95360.53;1778719;79;21188;-88
2020/12/30 03:01:37;;;;;;;4.00;2.10;;;;;;;1.19;84.95;95363.50;1818570;79;21154;-88
2020/12/30 03:04:04;;;;;;;5.40;2.37;;;;;;;1.27;84.88;95359.66;1818688;79;21095;-88
2020/12/30 03:06:31;;;;;;;6.25;2.00;;;;;;;1.23;84.41;95357.77;1818558;79;21123;-88
2020/12/30 03:08:58;;;;;;;4.58;2.00;;;;;;;1.09;84.86;95358.19;1818734;79;21521;-88
2020/12/30 03:11:25;;;;;;;3.98;2.08;;;;;;;1.16;85.45;95362.70;1818704;79;21479;-88
2020/12/30 03:13:53;;;;;;;5.25;2.62;;;;;;;1.27;85.70;95362.27;1818777;79;21131;-88
2020/12/30 03:16:20;;;;;;;9.10;3.87;;;;;;;1.23;84.96;95361.69;1818634;79;21123;-88
2020/12/30 03:18:47;;;;;;;8.48;3.95;;;;;;;1.21;84.63;95361.16;1818690;79;21253;-87
2020/12/30 03:21:14;;;;;;;4.95;2.98;;;;;;;1.22;84.33;95361.42;1770942;79;21142;-88
2020/12/30 03:23:40;;;;;;;3.55;1.70;;;;;;;1.08;83.95;95363.66;1769563;81;21154;-87
2020/12/30 03:26:07;;;;;;;3.33;1.87;;;;;;;1.04;84.44;95367.81;1769553;81;21107;-88
2020/12/30 03:28:34;;;;;;;3.22;2.00;;;;;;;1.03;84.67;95370.94;1769646;81;21146;-88
2020/12/30 03:31:01;;;;;;;4.78;1.57;;;;;;;1.00;84.83;95360.22;1769477;81;21660;-87
2020/12/30 03:33:28;;;;;;;5.92;2.05;;;;;;;1.12;85.43;95363.42;1769662;81;21499;-87
2020/12/30 03:35:55;;;;;;;3.27;1.65;;;;;;;1.25;85.65;95365.62;1769627;81;21139;-88
2020/12/30 03:38:22;;;;;;;3.90;1.92;;;;;;;1.32;85.58;95362.81;1769532;81;21723;-88
2020/12/30 03:40:49;;;;;;;10.38;4.87;;;;;;;1.44;85.77;95355.07;1769584;81;21236;-88
2020/12/30 03:43:16;;;;;;;8.73;4.03;;;;;;;1.27;84.67;95366.67;1769557;80;21156;-88
2020/12/30 03:45:43;;;;;;;13.03;5.20;;;;;;;1.17;84.23;95364.78;1769509;80;21127;-87
2020/12/30 03:48:09;;;;;;;4.05;2.72;;;;;;;1.03;84.42;95350.58;1769516;81;21198;-88
2020/12/30 03:50:36;;;;;;;5.70;2.45;;;;;;;0.89;84.54;95348.89;1770043;79;21487;-88
2020/12/30 03:53:03;;;;;;;4.83;2.20;;;;;;;0.89;85.52;95350.20;1769589;81;21234;-88
2020/12/30 03:55:30;;;;;;;4.00;2.27;;;;;;;0.94;85.59;95349.45;1769531;80;21464;-88
2020/12/30 03:57:57;;;;;;;5.28;2.52;;;;;;;1.00;85.64;95337.52;1769516;81;21155;-87
2020/12/30 04:00:24;;;;;;;3.75;2.35;;;;;;;1.07;85.53;95334.69;1769449;81;21151;-88
2020/12/30 04:02:50;;;;;;;3.95;2.60;;;;;;;0.93;85.59;95323.09;1769550;81;21171;-87
2020/12/30 04:05:17;;;;;;;4.10;2.37;;;;;;;0.91;85.73;95318.12;1769573;81;21131;-88
2020/12/30 04:07:44;;;;;;;5.40;2.22;;;;;;;0.98;85.74;95317.91;1769547;81;21471;-88
2020/12/30 04:10:11;;;;;;;6.25;3.40;;;;;;;1.04;85.63;95319.02;1769560;81;21499;-88
2020/12/30 04:12:38;;;;;;;8.95;4.47;;;;;;;0.95;85.50;95324.92;1769586;81;21490;-88
2020/12/30 04:15:05;;;;;;;8.18;4.30;;;;;;;0.82;85.85;95323.00;1769602;80;21494;-88
2020/12/30 04:17:32;;;;;;;6.30;3.90;;;;;;;0.80;85.86;95320.38;1769478;81;21502;-87
2020/12/30 04:19:59;;;;;;;8.18;3.58;;;;;;;0.86;86.70;95318.09;1770185;79;21147;-88
2020/12/30 04:22:27;;;;;;;5.83;2.45;;;;;;;1.03;87.01;95316.66;1769502;81;21141;-88
2020/12/30 04:24:54;;;;;;;6.15;4.28;;;;;;;1.14;87.04;95326.14;1769573;81;21128;-88
2020/12/30 04:27:21;;;;;;;5.67;2.85;;;;;;;1.16;86.55;95323.55;1769486;81;21151;-88
2020/12/30 04:29:48;;;;;;;5.22;2.62;;;;;;;1.14;86.60;95318.31;1752201;81;21152;-88
2020/12/30 04:32:15;;;;;;;7.03;2.70;;;;;;;1.20;86.67;95338.18;1769669;81;21135;-88
2020/12/30 04:34:41;;;;;;;5.80;2.62;;;;;;;1.17;86.60;95329.03;1769730;80;21142;-87
2020/12/30 04:37:08;;;;;;;4.37;2.27;;;;;;;1.15;86.40;95316.75;1769704;81;21514;-88
2020/12/30 04:39:35;;;;;;;3.85;2.15;;;;;;;1.17;86.17;95326.94;1770109;81;21524;-87
2020/12/30 04:42:02;;;;;;;5.20;2.30;;;;;;;1.16;85.90;95337.11;1770459;80;21273;-88
2020/12/30 04:44:33;;;;;;;4.67;1.98;;;;;;;1.16;85.80;95337.90;1770473;81;21676;-88
2020/12/30 04:47:02;;;;;;;4.33;2.17;;;;;;;1.19;85.73;95334.78;1770549;80;21111;-87
2020/12/30 04:49:31;;;;;;;6.08;2.80;;;;;;;1.22;85.69;95342.63;1770985;79;21173;-88
2020/12/30 04:51:59;;;;;;;5.22;2.65;;;;;;;1.23;85.83;95323.31;1770543;80;21135;-88
2020/12/30 04:54:27;;;;;;;4.42;2.42;;;;;;;1.31;86.06;95328.61;1770802;80;21289;-88
2020/12/30 04:57:00;;;;;;;6.97;2.87;;;;;;;1.34;86.22;95338.54;1770557;80;21289;-88
2020/12/30 04:59:32;;;;;;;4.33;3.08;;;;;;;1.38;86.24;95328.64;1770484;80;21277;-87
2020/12/30 05:02:10;;;;;;;10.20;4.45;;;;;;;1.34;86.08;95338.02;1770177;80;21281;-88
2020/12/30 05:04:40;;;;;;;9.08;4.65;;;;;;;1.21;85.55;95345.48;1769701;80;21139;-87
2020/12/30 05:07:13;;;;;;;9.73;3.80;;;;;;;1.11;85.45;95339.15;1770694;80;21095;-87
2020/12/30 05:09:44;;;;;;;6.42;3.60;;;;;;;0.97;86.20;95337.98;1770495;81;21127;-87
2020/12/30 05:12:20;;;;;;;7.17;3.42;;;;;;;0.90;86.86;95342.64;1770453;80;21285;-87
2020/12/30 05:14:48;;;;;;;12.20;5.17;;;;;;;0.99;86.89;95346.38;1770536;80;21617;-87
2020/12/30 05:17:17;;;;;;;8.65;4.25;;;;;;;0.97;86.47;95347.12;1770484;80;21522;-87
2020/12/30 05:19:46;;;;;;;11.68;4.60;;;;;;;0.89;86.10;95351.50;1770973;79;21270;-87
2020/12/30 05:22:21;;;;;;;9.85;4.28;;;;;;;0.80;85.96;95354.28;1770565;80;21135;-87
2020/12/30 05:24:49;;;;;;;7.83;4.03;;;;;;;0.86;86.29;95358.01;1770596;80;21284;-87
2020/12/30 05:27:18;;;;;;;7.08;3.60;;;;;;;1.00;86.59;95357.09;1770413;80;21135;-87
2020/12/30 05:29:50;;;;;;;5.20;3.05;;;;;;;1.10;86.67;95361.58;1770754;81;21184;-87
2020/12/30 05:32:18;;;;;;;6.85;3.33;;;;;;;1.18;86.58;95365.05;1770547;80;21269;-87
2020/12/30 05:34:46;;;;;;;7.62;3.95;;;;;;;1.21;86.51;95359.84;1770783;80;21155;-87
2020/12/30 05:37:15;;;;;;;10.30;4.95;;;;;;;1.27;86.48;95356.23;1770600;81;21143;-87
2020/12/30 05:39:43;;;;;;;6.20;3.70;;;;;;;1.30;86.38;95347.92;1770534;80;21169;-87
2020/12/30 05:42:18;;;;;;;11.50;6.05;;;;;;;1.11;85.89;95352.72;1770442;80;21150;-87
2020/12/30 05:44:48;;;;;;;14.00;6.30;;;;;;;0.90;86.33;95350.47;1770324;80;21261;-87
2020/12/30 05:47:25;;;;;;;11.70;6.33;;;;;;;0.85;86.94;95352.52;1770406;80;21154;-87
2020/12/30 05:49:55;;;;;;;15.18;6.33;;;;;;;0.87;87.25;95353.06;1771045;79;21157;-87
2020/12/30 05:52:24;;;;;;;;;;;;;;;0.96;87.30;95359.11;1773062;81;21478;-87
2020/12/30 05:54:59;;;;;;;7.25;3.33;;;;;;;1.03;87.42;95355.28;1770483;80;20210;-87
2020/12/30 05:57:37;;;;;;;6.83;3.17;;;;;;;1.12;87.36;95351.16;1770382;80;21123;-87
2020/12/30 06:00:11;;;;;;;8.68;3.37;;;;;;;1.23;87.38;95353.34;1770535;80;21181;-88
2020/12/30 06:02:44;;;;;;;8.45;3.10;;;;;;;1.34;87.37;95348.98;1770416;80;21134;-87
2020/12/30 06:05:18;;;;;;;5.70;2.45;;;;;;;1.42;87.29;95348.01;1770783;80;21313;-88
2020/12/30 06:07:49;;;;;;;5.53;2.87;;;;;;;1.49;87.24;95344.64;1770371;81;21269;-88
2020/12/30 06:10:19;;;;;;;6.65;3.20;;;;;;;1.51;87.30;95343.61;1770975;80;21261;-87
2020/12/30 06:12:58;;;;;;;5.35;2.40;;;;;;;1.53;87.10;95348.84;1770822;80;21266;-88
2020/12/30 06:15:31;;;;;;;5.40;2.25;;;;;;;1.56;87.16;95353.58;1770486;81;21257;-88
2020/12/30 06:18:10;;;;;;;6.95;3.60;;;;;;;1.58;87.04;95356.73;1770557;81;21256;-87
2020/12/30 06:20:40;;;;;;;7.97;3.50;;;;;;;1.44;86.95;95342.53;1770964;79;21119;-87
2020/12/30 06:23:14;;;;;;;7.58;3.35;;;;;;;1.46;87.06;95347.77;1770600;80;21172;-88
2020/12/30 06:25:44;;;;;;;9.68;2.98;;;;;;;1.54;87.10;95348.32;1770621;80;21265;-87
2020/12/30 06:28:21;;;;;;;6.90;3.00;;;;;;;1.62;87.13;95347.34;1770513;81;21318;-88
2020/12/30 06:30:50;;;;;;;9.13;2.45;;;;;;;1.70;87.05;95346.09;1770548;81;21292;-88
2020/12/30 06:33:23;;;;;;;5.83;2.55;;;;;;;1.77;86.93;95345.33;1770392;81;21170;-88
2020/12/30 06:35:56;;;;;;;7.12;2.50;;;;;;;1.84;86.84;95341.20;1770756;80;21128;-87
2020/12/30 06:38:30;;;;;;;5.17;2.77;;;;;;;1.90;86.74;95345.40;1770347;80;21157;-88
2020/12/30 06:41:02;;;;;;;2.98;2.12;;;;;;;1.92;86.50;95345.41;1770348;80;21166;-87
2020/12/30 06:43:48;;;;;;;4.37;2.30;;;;;;;1.95;86.38;95341.48;1770522;80;21316;-88
2020/12/30 06:46:26;;;;;;;4.55;2.52;;;;;;;1.96;86.24;95341.23;1770409;80;21261;-88
2020/12/30 06:49:03;;;;;;;6.78;2.92;;;;;;;1.87;85.91;95334.94;1765535;80;21514;-87
2020/12/30 06:51:40;;;;;;;5.90;3.45;;;;;;;1.82;85.93;95346.66;1787303;80;21139;-87
2020/12/30 06:54:09;;;;;;;6.92;4.28;;;;;;;1.78;86.12;95354.73;1786991;80;21120;-87
2020/12/30 06:56:46;;;;;;;6.80;4.12;;;;;;;1.67;86.28;95355.20;1787123;80;21522;-87
2020/12/30 06:59:31;;;;;;;10.95;5.20;;;;;;;1.65;86.75;95369.03;1787059;80;21524;-87
2020/12/30 07:02:06;;;;;;;6.28;3.08;;;;;;;1.71;86.75;95385.54;1787153;80;21544;-88
2020/12/30 07:04:35;;;;;;;5.80;3.40;;;;;;;1.74;86.62;95388.43;1787202;80;21128;-87
2020/12/30 07:07:22;;;;;;;5.05;2.75;;;;;;;1.75;86.40;95395.23;1787097;80;21467;-87
2020/12/30 07:09:50;;;;;;;9.25;4.47;;;;;;;1.75;86.41;95390.00;1787176;80;21139;-88
2020/12/30 07:12:18;;;;;;;9.10;4.83;;;;;;;1.75;86.45;95394.44;1787256;80;21128;-88
2020/12/30 07:14:46;;;;;;;6.70;2.90;;;;;;;1.83;86.60;95390.06;1787083;80;21100;-88
2020/12/30 07:17:13;;;;;;;4.95;2.85;;;;;;;1.93;86.95;95395.84;1787453;80;21143;-87
2020/12/30 07:19:41;;;;;;;6.17;2.95;;;;;;;2.01;86.96;95387.53;1781806;79;21133;-88
2020/12/30 07:22:13;;;;;;;6.20;2.65;;;;;;;2.11;86.75;95386.78;1770328;80;21554;-88
2020/12/30 07:24:54;;;;;;;6.70;2.17;;;;;;;2.20;86.65;95372.98;1769974;81;21068;-88
2020/12/30 07:27:24;;;;;;;6.45;2.25;;;;;;;2.32;86.61;95376.17;1757633;81;21134;-88
2020/12/30 07:29:51;;;;;;;;;;;;;;;2.42;86.44;95375.95;1772923;80;21181;-88
2020/12/30 07:32:20;;;;;;;5.00;1.92;;;;;;;2.51;86.29;95368.64;1770592;80;20129;-88
2020/12/30 07:34:50;;;;;;;6.17;2.90;;;;;;;2.60;86.15;95372.86;1770356;80;21260;-88
2020/12/30 07:37:19;;;;;;;7.95;4.20;;;;;;;2.61;85.80;95366.05;1770793;81;21131;-88
2020/12/30 07:39:49;;;;;;;9.10;3.60;;;;;;;2.55;85.50;95372.33;1770366;81;21714;-88
2020/12/30 07:42:23;;;;;;;9.20;4.37;;;;;;;2.58;85.51;95369.19;1770620;80;21276;-88
2020/12/30 07:44:56;;;;;;;7.80;4.30;;;;;;;2.58;85.37;95369.72;1770479;80;21088;-88
2020/12/30 07:47:28;;;;;;;7.83;4.10;;;;;;;2.50;85.33;95368.38;1770419;80;21495;-88
2020/12/30 07:50:05;;;;;;;6.45;3.70;;;;;;;2.48;85.36;95374.38;1770918;79;21193;-88
2020/12/30 07:52:34;;;;;;;8.95;5.00;;;;;;;2.51;85.43;95372.56;1770433;80;21101;-88
2020/12/30 07:55:01;;;;;;;10.20;5.60;;;;;;;2.50;85.28;95370.20;1770323;81;21155;-87
2020/12/30 07:57:29;;;;;;;9.48;5.80;;;;;;;2.46;85.07;95358.17;1770325;81;21162;-88
2020/12/30 07:59:56;;;;;;;9.15;4.60;;;;;;;2.45;84.98;95358.42;1770351;80;21465;-87
2020/12/30 08:02:24;;;;;;;10.18;5.12;;;;;;;2.48;84.98;95360.52;1770434;81;21296;-87
2020/12/30 08:05:01;;;;;;;10.65;5.60;;;;;;;2.49;84.88;95363.41;1757338;81;21116;-88
2020/12/30 08:07:29;;;;;;;9.20;4.67;;;;;;;2.49;84.77;95360.78;1770614;81;21270;-88
2020/12/30 08:09:57;;;;;;;9.03;4.60;;;;;;;2.51;84.69;95369.16;1770480;80;21155;-87
2020/12/30 08:12:24;;;;;;;7.12;3.87;;;;;;;2.52;84.62;95364.19;1770542;80;21135;-88
2020/12/30 08:14:53;;;;;;;6.95;3.80;;;;;;;2.53;84.62;95367.84;1770474;80;21277;-87
2020/12/30 08:17:22;;;;;;;8.80;3.58;;;;;;;2.57;84.70;95366.84;1770492;80;21139;-87
2020/12/30 08:19:51;;;;;;;6.80;3.45;;;;;;;2.60;84.71;95361.87;1771027;79;21633;-88
2020/12/30 08:22:25;;;;;;;5.53;3.08;;;;;;;2.59;84.84;95363.44;1770443;81;21266;-87
2020/12/30 08:24:56;;;;;;;7.80;2.75;;;;;;;2.57;84.98;95366.84;1770629;80;21455;-88
2020/12/30 08:27:29;;;;;;;8.13;3.35;;;;;;;2.54;85.03;95369.45;1770771;81;21123;-87
2020/12/30 08:30:00;;;;;;;7.72;3.95;;;;;;;2.55;85.07;95365.00;1770529;80;21659;-88
2020/12/30 08:32:35;;;;;;;7.45;4.40;;;;;;;2.53;85.23;95364.45;1770887;80;21246;-88
2020/12/30 08:35:12;;;;;;;5.92;3.37;;;;;;;2.52;85.24;95377.27;1770420;81;21099;-88
2020/12/30 08:37:49;;;;;;;5.55;2.77;;;;;;;2.56;85.23;95387.50;1770655;81;21273;-88
2020/12/30 08:40:31;;;;;;;8.90;3.75;;;;;;;2.65;85.18;95392.48;1770336;80;21281;-88
2020/12/30 08:43:21;;;;;;;8.03;4.22;;;;;;;2.74;84.97;95394.88;1770488;80;21266;-88
2020/12/30 08:45:57;;;;;;;5.80;3.52;;;;;;;2.79;84.81;95390.16;1770721;80;21273;-89
2020/12/30 08:48:29;;;;;;;8.38;4.28;;;;;;;2.80;84.73;95397.75;1770474;80;21682;-88
2020/12/30 08:50:56;;;;;;;14.07;6.05;;;;;;;2.81;84.65;95395.92;1771077;79;21261;-89
2020/12/30 08:53:40;;;;;;;11.33;6.05;;;;;;;2.87;84.43;95394.38;1770617;80;21629;-89
2020/12/30 08:56:09;;;;;;;11.00;5.60;;;;;;;2.95;84.35;95391.76;1770638;80;21144;-88
2020/12/30 08:58:36;;;;;;;8.80;5.10;;;;;;;3.02;84.29;95395.45;1770500;81;21311;-88
2020/12/30 09:01:20;;;;;;;10.50;5.25;;;;;;;3.07;84.18;95396.75;1770608;80;21628;-89
2020/12/30 09:03:48;;;;;;;11.10;5.30;;;;;;;3.09;84.05;95388.11;1768485;81;21661;-88
2020/12/30 09:06:27;;;;;;;10.43;4.45;;;;;;;3.07;84.00;95387.59;1770546;80;21618;-89
2020/12/30 09:09:11;;;;;;;7.83;3.77;;;;;;;3.08;83.92;95378.69;1770331;80;21144;-89
2020/12/30 09:11:50;;;;;;;5.65;3.90;;;;;;;3.14;83.91;95377.66;1770530;80;21099;-89
2020/12/30 09:14:24;;;;;;;6.45;3.90;;;;;;;3.21;83.76;95387.34;1770488;80;21254;-89
2020/12/30 09:17:04;;;;;;;8.33;3.98;;;;;;;3.26;83.70;95378.20;1770404;81;21108;-89
2020/12/30 09:19:29;;;;;;;8.68;3.75;;;;;;;3.24;83.56;95378.46;1770921;79;21269;-89
2020/12/30 09:22:11;;;;;;;7.92;3.45;;;;;;;3.25;83.53;95372.17;1770458;80;21108;-89
2020/12/30 09:24:41;;;;;;;7.05;3.35;;;;;;;3.28;83.43;95372.17;1770544;80;21294;-89
2020/12/30 09:27:21;;;;;;;7.75;3.95;;;;;;;3.30;83.58;95375.83;1770698;80;21261;-89
2020/12/30 09:30:17;;;;;;;10.50;5.83;;;;;;;3.22;83.85;95368.75;1770769;80;21675;-89
2020/12/30 09:32:46;;;;;;;9.85;6.28;;;;;;;3.17;83.94;95361.42;1770494;80;21128;-89
2020/12/30 09:35:16;;;;;;;14.35;6.08;;;;;;;3.12;84.11;95361.43;1770510;80;21270;-89
2020/12/30 09:37:51;;;;;;;;;;;;;;;3.08;84.26;95353.29;1773159;80;21483;-89
2020/12/30 09:40:19;;;;;;;9.58;4.50;;;;;;;3.07;84.39;95347.80;1770486;80;20574;-89
2020/12/30 09:42:47;;;;;;;8.50;4.92;;;;;;;3.11;84.38;95350.70;1770480;80;21155;-88
2020/12/30 09:45:19;;;;;;;7.95;3.80;;;;;;;3.15;84.40;95356.45;1770401;81;21127;-89
2020/12/30 09:47:47;;;;;;;7.40;4.05;;;;;;;3.21;84.40;95355.39;1770623;80;21269;-89
2020/12/30 09:50:18;;;;;;;5.05;3.27;;;;;;;3.25;84.29;95356.98;1771080;79;21293;-89
2020/12/30 09:52:46;;;;;;;;;;;;;;;3.28;84.21;95353.84;1773395;81;21284;-89
2020/12/30 09:55:14;;;;;;;5.55;2.85;;;;;;;3.35;84.20;95356.96;1770509;81;20326;-89
2020/12/30 09:57:42;;;;;;;6.65;3.12;;;;;;;3.43;84.05;95355.66;1770717;80;21277;-89
2020/12/30 10:00:10;;;;;;;8.25;4.65;;;;;;;3.51;84.00;95357.20;1770658;80;21314;-89
2020/12/30 10:02:37;;;;;;;7.83;4.12;;;;;;;3.62;84.11;95361.13;1770687;81;21273;-89
2020/12/30 10:05:05;;;;;;;6.97;3.90;;;;;;;3.65;83.98;95357.98;1770429;81;21135;-89
2020/12/30 10:07:32;;;;;;;7.30;3.37;;;;;;;3.70;83.81;95360.61;1770407;81;21285;-89
2020/12/30 10:09:59;;;;;;;6.67;3.70;;;;;;;3.78;83.71;95360.05;1770449;81;21281;-89
2020/12/30 10:12:26;;;;;;;7.55;3.95;;;;;;;3.84;83.63;95357.17;1770462;80;21297;-89
2020/12/30 10:14:53;;;;;;;5.90;3.50;;;;;;;3.92;83.51;95349.27;1770412;81;21151;-89
2020/12/30 10:17:20;;;;;;;5.17;3.40;;;;;;;3.96;83.32;95351.64;1770594;80;21280;-89
2020/12/30 10:19:47;;;;;;;5.80;3.52;;;;;;;4.00;83.12;95340.86;1770939;79;21273;-89
2020/12/30 10:22:14;;;;;;;6.37;3.45;;;;;;;4.07;83.05;95332.70;1770491;80;21645;-89
2020/12/30 10:24:44;;;;;;;9.88;4.00;;;;;;;4.11;82.94;95324.05;1770618;80;21281;-89
2020/12/30 10:27:15;;;;;;;7.07;3.50;;;;;;;4.21;82.96;95325.04;1770627;80;21320;-89
2020/12/30 10:29:44;;;;;;;6.17;3.77;;;;;;;4.33;82.89;95321.58;1770317;80;21140;-90
2020/12/30 10:32:11;;;;;;;6.58;4.08;;;;;;;4.45;82.86;95319.42;1770369;80;21447;-89
2020/12/30 10:34:38;;;;;;;9.25;4.05;;;;;;;4.58;82.88;95306.23;1770383;81;21139;-90
2020/12/30 10:37:07;;;;;;;8.03;4.40;;;;;;;4.71;82.75;95310.35;1770333;80;21150;-90
2020/12/30 10:39:36;;;;;;;8.40;4.70;;;;;;;4.83;82.50;95306.61;1770390;80;21147;-90
2020/12/30 10:42:04;;;;;;;8.88;5.05;;;;;;;4.95;82.46;95299.17;1769936;80;21177;-90
2020/12/30 10:44:32;;;;;;;9.43;5.55;;;;;;;5.03;81.89;95305.92;1769658;81;21151;-90
2020/12/30 10:46:59;;;;;;;9.23;5.40;;;;;;;5.02;81.65;95295.16;1769540;81;21148;-90
2020/12/30 10:49:26;;;;;;;8.00;4.95;;;;;;;5.03;81.61;95283.59;1770140;79;21172;-90
2020/12/30 10:51:53;;;;;;;10.35;4.58;;;;;;;5.17;81.89;95281.11;1769675;80;21131;-90
2020/12/30 10:54:20;;;;;;;8.10;4.47;;;;;;;5.20;81.43;95283.72;1769706;81;21463;-90
2020/12/30 10:56:51;;;;;;;10.35;5.92;;;;;;;5.12;81.19;95276.45;1769603;81;21139;-90
2020/12/30 10:59:20;;;;;;;12.73;6.35;;;;;;;5.05;81.14;95278.06;1769333;81;21633;-90
2020/12/30 11:01:54;;;;;;;10.80;6.42;;;;;;;4.96;81.22;95274.48;1769511;81;21569;-90
2020/12/30 11:04:21;;;;;;;12.85;7.08;;;;;;;4.88;81.34;95282.93;1769645;81;21530;-90
2020/12/30 11:06:49;;;;;;;14.30;7.72;;;;;;;4.84;81.76;95281.92;1769498;81;21143;-90
2020/12/30 11:09:16;;;;;;;13.62;8.60;;;;;;;4.87;81.93;95284.77;1769601;81;21288;-90
2020/12/30 11:11:43;;;;;;;16.60;9.63;;;;;;;4.96;81.92;95273.95;1769520;81;21126;-90
2020/12/30 11:14:10;;;;;;;16.50;9.23;;;;;;;5.08;81.91;95267.03;1769615;81;21154;-90
2020/12/30 11:16:37;;;;;;;18.20;10.85;;;;;;;5.17;81.85;95262.73;1769532;81;21491;-90
2020/12/30 11:19:05;;;;;;;17.12;11.15;;;;;;;5.24;81.70;95265.83;1770275;79;21178;-90
2020/12/30 11:21:32;;;;;;;18.25;10.40;;;;;;;5.31;81.58;95264.96;1769537;81;21155;-90
2020/12/30 11:23:59;;;;;;;10.10;5.50;;;;;;;5.38;81.42;95275.69;1769568;81;21138;-90
2020/12/30 11:26:26;;;;;;;4.33;2.60;;;;;;;5.33;81.39;95277.28;1769525;81;21135;-90
2020/12/30 11:28:53;;;;;;;5.78;3.55;;;;;;;5.29;79.97;95284.16;1769710;80;21119;-90
2020/12/30 11:31:20;;;;;;;5.60;3.10;;;;;;;5.25;80.14;95282.37;1769522;81;21672;-90
2020/12/30 11:33:47;;;;;;;7.40;4.42;;;;;;;5.19;80.06;95293.44;1769602;80;21103;-91
2020/12/30 11:36:15;;;;;;;13.98;6.53;;;;;;;5.12;79.83;95286.42;1769562;80;21140;-90
2020/12/30 11:38:42;;;;;;;10.38;5.03;;;;;;;5.06;79.90;95290.92;1769598;80;21157;-90
2020/12/30 11:41:11;;;;;;;7.37;4.20;;;;;;;5.01;79.94;95279.68;1769435;81;21150;-91
2020/12/30 11:43:39;;;;;;;8.35;4.17;;;;;;;4.96;80.17;95284.45;1769736;81;21151;-90
2020/12/30 11:46:06;;;;;;;9.20;3.92;;;;;;;4.90;80.37;95281.59;1769569;80;21134;-91
2020/12/30 11:48:33;;;;;;;11.28;4.53;;;;;;;4.89;80.56;95282.66;1769569;81;21510;-90
2020/12/30 11:51:00;;;;;;;8.40;4.75;;;;;;;4.93;80.65;95290.79;1770231;79;21143;-90
2020/12/30 11:53:27;;;;;;;9.83;4.70;;;;;;;5.00;80.89;95293.88;1769535;81;21321;-90